Time;durP1;ratioP1;P1;durP2;ratioP2;P2;SDS_P1;SDS_P2;PMS_P1;PMS_P2;Temp;Humidity;BMP_temperature;BMP_pressure;BME280_temperature;BME280_humidity;BME280_pressure;Samples;Min_cycle;Max_cycle;Signal;HPM_P1;HPM_P2
2022/03/04 00:01:04;;;;;;;13.27;8.43;;;4.90;63.80;;;7.91;50.76;102294.63;5054131;28;20205;-54
2022/03/04 00:03:31;;;;;;;12.23;9.10;;;4.90;63.70;;;7.88;50.75;102292.25;5054191;28;20215;-55
2022/03/04 00:05:58;;;;;;;13.03;8.93;;;4.90;63.70;;;7.84;50.65;102293.44;5054341;28;20217;-53
2022/03/04 00:08:26;;;;;;;15.40;9.73;;;4.80;63.40;;;7.80;50.92;102296.38;5054192;28;20192;-53
2022/03/04 00:10:54;;;;;;;15.17;9.80;;;4.80;64.10;;;7.77;50.87;102301.88;5044123;28;20553;-56
2022/03/04 00:13:21;;;;;;;18.17;10.00;;;4.80;64.00;;;7.72;51.08;102299.63;5050277;28;20277;-54
2022/03/04 00:15:50;;;;;;;13.57;9.50;;;4.70;65.10;;;7.68;51.31;102292.94;5054412;28;20183;-51
2022/03/04 00:18:18;;;;;;;13.60;9.67;;;4.70;64.60;;;7.67;51.22;102301.75;5054564;28;20197;-54
2022/03/04 00:20:46;;;;;;;13.23;9.30;;;4.70;64.40;;;7.64;51.67;102301.97;5036906;28;20205;-55
2022/03/04 00:23:14;;;;;;;15.00;8.93;;;4.70;64.60;;;7.61;51.36;102302.19;5052336;28;20206;-54
2022/03/04 00:25:41;;;;;;;13.47;9.30;;;4.70;64.70;;;7.62;51.49;102303.03;5053858;28;20690;-55
2022/03/04 00:28:09;;;;;;;14.07;9.50;;;4.70;64.80;;;7.59;51.49;102317.22;5054227;28;20659;-55
2022/03/04 00:30:50;;;;;;;14.23;10.43;;;4.70;65.10;;;7.57;52.01;102313.88;5053090;28;20222;-55
2022/03/04 00:33:22;;;;;;;15.47;10.77;;;4.60;65.00;;;7.53;52.03;102310.63;5053910;28;20178;-54
2022/03/04 00:35:53;;;;;;;17.03;10.30;;;4.60;65.50;;;7.56;51.84;102303.53;5047157;28;20217;-55
2022/03/04 00:38:22;;;;;;;16.67;9.90;;;4.60;65.60;;;7.59;51.61;102304.13;5036036;28;20198;-56
2022/03/04 00:40:50;;;;;;;15.57;10.23;;;4.60;65.50;;;7.65;51.95;102311.53;5039190;28;20278;-53
2022/03/04 00:43:18;;;;;;;16.20;10.50;;;4.60;65.60;;;7.69;52.22;102315.56;5033648;28;20205;-55
2022/03/04 00:45:45;;;;;;;16.43;9.97;;;4.70;66.00;;;7.76;52.20;102314.16;5033667;28;20214;-55
2022/03/04 00:48:13;;;;;;;18.53;10.87;;;4.70;65.90;;;7.81;51.45;102316.41;5052932;28;20193;-53
2022/03/04 00:50:41;;;;;;;15.77;10.03;;;4.70;65.80;;;7.85;51.42;102318.69;5053690;28;20193;-50
2022/03/04 00:53:09;;;;;;;14.87;10.07;;;4.80;66.00;;;7.92;51.77;102312.00;5053051;28;20213;-52
2022/03/04 00:55:37;;;;;;;15.23;10.43;;;4.80;65.70;;;7.97;51.60;102317.75;5053674;28;20194;-52
2022/03/04 00:58:06;;;;;;;15.00;9.70;;;4.80;65.90;;;8.03;51.11;102314.63;5034403;28;20203;-52
2022/03/04 01:00:34;;;;;;;15.90;10.33;;;4.90;65.70;;;8.06;51.41;102314.41;5033577;28;20195;-52
2022/03/04 01:03:03;;;;;;;17.23;11.20;;;4.90;65.40;;;8.08;51.61;102315.09;5033082;28;20252;-53
2022/03/04 01:05:31;;;;;;;15.83;10.90;;;5.00;65.60;;;8.05;51.16;102307.50;5033537;28;20219;-55
2022/03/04 01:08:00;;;;;;;17.63;11.77;;;5.00;65.30;;;8.04;51.07;102320.72;5033321;28;20194;-55
2022/03/04 01:10:27;;;;;;;15.93;10.17;;;5.00;65.20;;;8.03;51.33;102314.63;5033334;28;20200;-52
2022/03/04 01:12:54;;;;;;;14.47;10.30;;;5.00;65.90;;;8.02;51.62;102317.38;5033143;28;20191;-52
2022/03/04 01:15:22;;;;;;;16.07;9.63;;;5.00;64.90;;;8.00;51.18;102312.25;5033617;28;20239;-55
2022/03/04 01:17:49;;;;;;;15.53;10.63;;;5.00;64.70;;;7.98;51.24;102316.81;5051167;28;20206;-54
2022/03/04 01:20:17;;;;;;;14.17;10.57;;;5.00;64.90;;;7.96;51.47;102316.06;5053036;28;20195;-51
2022/03/04 01:22:44;;;;;;;16.93;10.67;;;4.90;65.00;;;7.99;51.29;102323.69;5052774;28;20198;-54
2022/03/04 01:25:14;;;;;;;14.63;9.53;;;5.00;65.30;;;8.01;51.23;102311.28;5053032;28;20245;-55
2022/03/04 01:27:41;;;;;;;18.07;11.00;;;4.90;65.10;;;8.06;51.03;102319.63;5052554;28;20274;-53
2022/03/04 01:30:10;;;;;;;15.43;10.50;;;5.00;65.30;;;8.06;51.27;102319.63;5053355;28;20282;-55
2022/03/04 01:32:37;;;;;;;19.80;10.73;;;5.00;65.30;;;8.04;51.52;102316.31;5052834;28;20656;-52
2022/03/04 01:35:05;;;;;;;16.53;10.30;;;5.00;65.20;;;8.03;51.73;102308.56;5053176;28;20290;-54
2022/03/04 01:37:32;;;;;;;14.50;10.17;;;5.00;65.40;;;7.97;52.12;102309.88;5035154;28;20202;-53
2022/03/04 01:39:59;;;;;;;15.63;10.80;;;5.10;65.30;;;7.94;51.99;102304.84;5033264;28;20197;-53
2022/03/04 01:42:28;;;;;;;14.63;9.97;;;5.10;65.10;;;7.95;51.19;102298.69;5033147;28;20190;-55
2022/03/04 01:44:56;;;;;;;16.53;11.00;;;5.10;65.00;;;7.95;51.60;102301.28;5032808;28;20217;-53
2022/03/04 01:47:23;;;;;;;16.77;10.57;;;5.00;65.20;;;7.95;51.79;102290.81;5037533;28;20187;-53
2022/03/04 01:49:51;;;;;;;19.93;11.37;;;5.10;65.10;;;7.93;52.18;102292.72;5036904;28;20186;-52
2022/03/04 01:52:18;;;;;;;16.00;10.63;;;5.10;65.50;;;7.87;52.13;102294.97;5041837;28;20199;-53
2022/03/04 01:54:45;;;;;;;14.13;10.27;;;5.00;65.10;;;7.83;51.66;102297.00;5056860;28;20224;-54
2022/03/04 01:57:13;;;;;;;16.33;10.53;;;5.00;64.90;;;7.79;51.71;102298.19;5056259;28;20186;-53
2022/03/04 01:59:42;;;;;;;16.73;10.87;;;5.00;65.10;;;7.73;52.09;102285.56;5056795;28;20195;-54
2022/03/04 02:02:10;;;;;;;17.23;10.90;;;4.90;65.20;;;7.62;52.33;102298.66;5056870;28;20662;-54
2022/03/04 02:04:38;;;;;;;16.37;11.47;;;4.90;65.40;;;7.47;52.87;102287.53;5056242;28;20222;-52
2022/03/04 02:07:06;;;;;;;16.33;10.63;;;4.80;65.40;;;7.43;52.84;102298.38;5056464;28;20219;-51
2022/03/04 02:09:33;;;;;;;15.10;10.13;;;4.80;65.30;;;7.44;53.09;102300.06;5056649;28;20221;-53
2022/03/04 02:12:00;;;;;;;14.90;10.27;;;4.70;65.70;;;7.43;52.78;102296.59;5056313;28;20197;-55
2022/03/04 02:14:28;;;;;;;18.63;10.47;;;4.70;65.80;;;7.47;53.04;102297.19;5056267;28;20233;-51
2022/03/04 02:16:56;;;;;;;15.97;10.47;;;4.70;66.00;;;7.49;52.96;102303.97;5056169;28;20297;-49
2022/03/04 02:19:24;;;;;;;14.73;10.10;;;4.70;65.90;;;7.51;52.88;102298.63;5056885;28;20503;-50
2022/03/04 02:21:56;;;;;;;15.20;9.87;;;4.70;66.10;;;7.54;52.40;102295.75;5056163;28;20186;-50
2022/03/04 02:24:26;;;;;;;16.33;10.60;;;4.70;66.10;;;7.59;52.70;102298.88;5056338;28;20224;-50
2022/03/04 02:26:56;;;;;;;17.13;10.27;;;4.70;66.40;;;7.65;52.34;102298.41;5056462;28;20297;-53
2022/03/04 02:29:24;;;;;;;18.90;10.37;;;4.70;66.10;;;7.69;52.32;102304.25;5056891;28;20193;-51
2022/03/04 02:31:53;;;;;;;16.03;10.70;;;4.70;65.70;;;7.72;52.06;102302.25;5056786;28;20183;-54
2022/03/04 02:34:21;;;;;;;15.43;10.27;;;4.70;65.40;;;7.75;52.07;102306.41;5055920;28;20224;-52
2022/03/04 02:36:49;;;;;;;15.33;10.90;;;4.70;65.90;;;7.79;51.78;102316.53;5050028;28;20188;-54
2022/03/04 02:39:17;;;;;;;14.47;10.20;;;4.80;66.10;;;7.81;51.58;102308.56;5048147;28;20201;-51
2022/03/04 02:41:45;;;;;;;15.13;10.27;;;4.80;66.00;;;7.83;51.87;102312.72;5056599;28;20266;-54
2022/03/04 02:44:13;;;;;;;15.10;9.87;;;4.80;65.80;;;7.86;52.14;102307.25;5055796;28;20238;-51
2022/03/04 02:46:42;;;;;;;18.63;10.87;;;4.90;66.10;;;7.90;51.34;102311.31;5046886;28;20214;-54
2022/03/04 02:49:11;;;;;;;17.33;10.20;;;4.90;65.50;;;7.91;51.64;102307.75;5036130;28;20202;-51
2022/03/04 02:51:39;;;;;;;16.80;10.80;;;4.90;65.60;;;7.92;51.63;102311.16;5036366;28;20203;-51
2022/03/04 02:54:07;;;;;;;18.97;10.63;;;4.90;65.50;;;7.89;51.49;102301.75;5055658;28;20256;-54
2022/03/04 02:56:37;;;;;;;14.30;9.63;;;4.90;65.60;;;7.89;51.61;102301.75;5054108;28;20658;-56
2022/03/04 02:59:05;;;;;;;14.77;9.43;;;4.90;65.50;;;7.85;51.79;102310.81;5039365;28;20258;-56
2022/03/04 03:01:39;;;;;;;15.43;9.53;;;4.90;65.40;;;7.80;51.20;102302.47;5040629;28;20692;-56
2022/03/04 03:04:09;;;;;;;15.70;9.40;;;4.90;65.10;;;7.79;51.53;102306.06;5043326;28;20215;-53
2022/03/04 03:06:36;;;;;;;12.17;8.90;;;4.80;64.70;;;7.76;51.29;102306.28;5038679;28;20306;-51
2022/03/04 03:09:04;;;;;;;16.17;10.10;;;4.80;64.70;;;7.73;50.82;102314.38;5039894;28;20210;-52
2022/03/04 03:11:31;;;;;;;18.40;10.27;;;4.70;64.70;;;7.70;51.12;102314.59;5039951;28;20206;-52
2022/03/04 03:14:00;;;;;;;15.73;9.90;;;4.70;66.10;;;7.70;51.88;102309.34;5040517;28;20307;-52
2022/03/04 03:16:27;;;;;;;15.33;9.60;;;4.70;65.40;;;7.69;51.20;102304.25;5059195;28;20191;-51
2022/03/04 03:18:55;;;;;;;13.83;9.70;;;4.70;65.90;;;7.66;51.45;102307.94;5059789;28;20638;-50
2022/03/04 03:21:22;;;;;;;16.07;9.80;;;4.70;65.00;;;7.63;51.45;102310.78;5059070;28;20186;-51
2022/03/04 03:23:49;;;;;;;17.30;10.67;;;4.60;65.50;;;7.61;52.15;102301.41;5054771;28;20264;-50
2022/03/04 03:26:17;;;;;;;14.37;9.53;;;4.60;65.90;;;7.61;51.99;102307.44;5054932;28;20218;-51
2022/03/04 03:28:44;;;;;;;18.70;9.73;;;4.60;65.80;;;7.61;51.77;102302.19;5055201;28;20196;-51
2022/03/04 03:31:13;;;;;;;14.90;10.03;;;4.70;65.90;;;7.61;51.87;102307.44;5055021;28;20543;-52
2022/03/04 03:33:43;;;;;;;15.07;9.20;;;4.70;65.50;;;7.62;52.18;102308.28;5051036;28;20218;-50
2022/03/04 03:36:10;;;;;;;15.07;10.13;;;4.70;65.50;;;7.61;51.52;102307.44;5055603;28;20264;-52
2022/03/04 03:38:38;;;;;;;16.20;10.23;;;4.70;65.70;;;7.59;51.67;102298.03;5055397;28;20194;-50
2022/03/04 03:41:05;;;;;;;18.33;10.77;;;4.70;65.60;;;7.58;51.43;102301.63;5055305;28;20186;-50
2022/03/04 03:43:40;;;;;;;16.60;9.90;;;4.60;65.30;;;7.56;51.87;102299.09;5043947;28;20245;-53
2022/03/04 03:46:07;;;;;;;14.17;8.90;;;4.60;65.60;;;7.55;52.05;102297.44;5035347;28;20299;-50
2022/03/04 03:48:39;;;;;;;16.40;10.03;;;4.60;65.90;;;7.56;52.02;102293.84;5036151;28;20218;-51
2022/03/04 03:51:09;;;;;;;16.23;10.30;;;4.60;65.80;;;7.55;51.66;102294.81;5034747;28;20190;-54
2022/03/04 03:53:37;;;;;;;13.93;8.83;;;4.60;65.70;;;7.53;51.91;102294.94;5041360;28;20223;-53
2022/03/04 03:56:05;;;;;;;16.63;10.77;;;4.60;65.40;;;7.51;52.08;102302.06;5034747;28;20195;-51
2022/03/04 03:58:33;;;;;;;16.17;10.07;;;4.60;65.30;;;7.50;51.32;102307.44;5034478;28;20195;-52
2022/03/04 04:01:01;;;;;;;15.23;10.37;;;4.60;65.00;;;7.44;51.87;102306.09;5034438;28;20234;-53
2022/03/04 04:03:29;;;;;;;16.23;9.90;;;4.50;65.00;;;7.40;51.62;102309.06;5033940;28;20190;-53
2022/03/04 04:05:58;;;;;;;17.47;10.53;;;4.50;65.00;;;7.35;51.47;102309.41;5046181;28;20216;-54
2022/03/04 04:08:25;;;;;;;16.07;10.40;;;4.40;65.50;;;7.32;52.15;102311.44;5054101;28;20190;-55
2022/03/04 04:10:53;;;;;;;15.53;9.57;;;4.40;65.70;;;7.29;52.01;102306.44;5054294;28;20265;-54
2022/03/04 04:13:20;;;;;;;17.07;9.97;;;4.40;65.90;;;7.26;51.95;102304.88;5046211;28;20192;-53
2022/03/04 04:15:48;;;;;;;15.23;9.67;;;4.30;65.80;;;7.24;52.05;102313.78;5034249;28;20194;-50
2022/03/04 04:18:16;;;;;;;15.63;9.70;;;4.30;66.10;;;7.25;52.00;102316.28;5034461;28;20194;-51
2022/03/04 04:20:43;;;;;;;15.70;9.87;;;4.30;66.00;;;7.27;52.16;102317.00;5034091;28;20651;-53
2022/03/04 04:23:12;;;;;;;14.93;9.40;;;4.30;66.50;;;7.28;52.33;102321.28;5041026;28;20196;-55
2022/03/04 04:25:39;;;;;;;18.00;10.27;;;4.30;66.40;;;7.29;52.21;102327.38;5036898;28;20551;-53
2022/03/04 04:28:06;;;;;;;16.20;9.87;;;4.30;66.30;;;7.29;52.36;102322.13;5049212;28;20192;-53
2022/03/04 04:30:34;;;;;;;16.73;10.63;;;4.30;66.50;;;7.32;52.09;102329.78;5034012;28;20357;-56
2022/03/04 04:33:01;;;;;;;17.63;10.27;;;4.40;66.50;;;7.35;52.19;102321.66;5034542;28;20194;-54
2022/03/04 04:35:38;;;;;;;16.00;10.33;;;4.40;66.70;;;7.38;52.99;102326.69;5032433;28;20289;-50
2022/03/04 04:38:05;;;;;;;14.47;9.80;;;4.50;66.80;;;7.41;52.72;102321.22;5032649;28;20202;-54
2022/03/04 04:40:34;;;;;;;14.03;8.97;;;4.50;66.20;;;7.44;52.29;102321.00;5033946;28;20294;-54
2022/03/04 04:43:01;;;;;;;16.07;10.47;;;4.50;65.90;;;7.46;51.87;102311.25;5037019;28;20197;-53
2022/03/04 04:45:28;;;;;;;20.07;11.43;;;4.60;66.10;;;7.49;51.67;102321.47;5053561;28;20671;-50
2022/03/04 04:47:56;;;;;;;16.33;10.37;;;4.60;65.70;;;7.49;51.76;102313.59;5053635;28;20216;-54
2022/03/04 04:50:23;;;;;;;15.73;10.10;;;4.60;65.90;;;7.50;52.04;102315.28;5033700;28;20202;-54
2022/03/04 04:52:50;;;;;;;17.00;10.10;;;4.60;65.40;;;7.52;51.67;102313.38;5040556;28;20214;-52
2022/03/04 04:55:18;;;;;;;15.90;9.63;;;4.60;65.40;;;7.54;52.12;102311.47;5053740;28;20248;-53
2022/03/04 04:57:47;;;;;;;16.07;9.73;;;4.60;65.40;;;7.55;51.54;102326.25;5053433;28;20274;-53
2022/03/04 05:00:15;;;;;;;14.50;9.77;;;4.60;65.20;;;7.54;51.56;102321.97;5053220;28;20683;-51
2022/03/04 05:02:42;;;;;;;14.47;9.47;;;4.70;65.00;;;7.51;51.13;102319.59;5052885;28;20182;-52
2022/03/04 05:05:09;;;;;;;12.03;8.53;;;4.60;64.70;;;7.48;51.25;102314.56;5053038;28;20214;-54
2022/03/04 05:07:37;;;;;;;15.33;9.23;;;4.60;65.00;;;7.46;51.69;102316.47;5053081;28;20228;-50
2022/03/04 05:10:05;;;;;;;13.50;9.27;;;4.50;64.90;;;7.44;51.41;102315.78;5053222;28;20237;-52
2022/03/04 05:12:33;;;;;;;15.60;9.23;;;4.50;65.00;;;7.41;51.52;102321.22;5052827;28;20214;-51
2022/03/04 05:15:02;;;;;;;15.20;9.40;;;4.50;65.60;;;7.41;51.73;102318.59;5051997;28;20210;-52
2022/03/04 05:17:29;;;;;;;12.43;8.70;;;4.50;65.60;;;7.40;51.77;102315.16;5052898;28;20221;-53
2022/03/04 05:19:56;;;;;;;15.63;10.10;;;4.50;65.70;;;7.42;51.45;102307.16;5052067;28;20186;-51
2022/03/04 05:22:24;;;;;;;15.40;9.57;;;4.50;65.70;;;7.41;51.98;102316.00;5052355;28;20195;-51
2022/03/04 05:24:51;;;;;;;13.80;8.47;;;4.50;65.80;;;7.42;51.49;102318.47;5052268;28;20220;-50
2022/03/04 05:27:30;;;;;;;17.03;9.90;;;4.50;65.60;;;7.40;52.51;102324.78;5053249;28;20217;-52
2022/03/04 05:29:57;;;;;;;12.97;8.33;;;4.50;65.70;;;7.39;52.33;102317.91;5052994;28;20574;-52
2022/03/04 05:32:26;;;;;;;11.13;7.37;;;4.50;65.50;;;7.37;51.47;102325.00;5052502;28;20217;-53
2022/03/04 05:34:53;;;;;;;12.47;8.93;;;4.50;65.30;;;7.35;51.43;102326.91;5052171;28;20704;-52
2022/03/04 05:37:21;;;;;;;13.70;8.37;;;4.40;65.30;;;7.34;52.45;102325.25;5052724;28;20194;-52
2022/03/04 05:39:48;;;;;;;14.50;8.83;;;4.40;65.90;;;7.33;51.88;102341.91;5052725;28;20193;-53
2022/03/04 05:42:16;;;;;;;15.60;8.97;;;4.40;66.50;;;7.33;51.71;102340.13;5052551;28;20194;-55
2022/03/04 05:44:43;;;;;;;13.70;9.17;;;4.40;66.10;;;7.35;52.65;102337.38;5035985;28;20212;-51
2022/03/04 05:47:11;;;;;;;13.07;8.33;;;4.40;66.30;;;7.36;52.56;102339.06;5032710;28;20216;-50
2022/03/04 05:49:40;;;;;;;14.87;9.43;;;4.40;66.10;;;7.35;51.99;102337.38;5032922;28;20191;-51
2022/03/04 05:52:07;;;;;;;13.20;8.77;;;4.40;66.10;;;7.36;52.54;102346.91;5035738;28;20204;-52
2022/03/04 05:54:35;;;;;;;12.30;8.53;;;4.40;66.10;;;7.35;52.43;102342.63;5051273;28;20701;-50
2022/03/04 05:57:03;;;;;;;12.70;9.13;;;4.40;66.30;;;7.36;52.32;102346.91;5052264;28;20651;-55
2022/03/04 05:59:30;;;;;;;13.07;9.13;;;4.40;66.30;;;7.33;51.86;102345.38;5052108;28;20187;-51
2022/03/04 06:01:57;;;;;;;12.23;8.37;;;4.40;66.20;;;7.32;52.20;102348.09;5052435;28;20199;-53
2022/03/04 06:04:25;;;;;;;14.13;8.93;;;4.40;66.00;;;7.29;51.93;102343.09;5040002;28;20679;-52
2022/03/04 06:06:54;;;;;;;14.80;8.60;;;4.40;65.90;;;7.27;51.62;102351.03;5032444;28;20245;-54
2022/03/04 06:09:27;;;;;;;12.27;8.60;;;4.30;65.60;;;7.24;52.39;102335.56;5032376;28;20277;-50
2022/03/04 06:11:58;;;;;;;17.03;8.00;;;4.30;65.60;;;7.21;52.01;102340.19;5032281;28;20325;-52
2022/03/04 06:14:26;;;;;;;12.67;7.90;;;4.20;65.90;;;7.18;51.92;102337.81;5035694;28;20213;-52
2022/03/04 06:16:53;;;;;;;12.77;7.87;;;4.20;66.00;;;7.17;51.93;102341.38;5047836;28;20277;-54
2022/03/04 06:19:21;;;;;;;13.27;8.63;;;4.20;66.70;;;7.12;52.33;102335.63;5052544;28;20191;-56
2022/03/04 06:21:48;;;;;;;13.23;8.73;;;4.20;66.40;;;7.13;53.01;102339.94;5052536;28;20601;-51
2022/03/04 06:24:17;;;;;;;14.07;8.37;;;4.20;66.70;;;7.13;52.47;102337.31;5051737;28;20214;-52
2022/03/04 06:26:44;;;;;;;15.70;9.43;;;4.10;66.90;;;7.11;53.04;102354.91;5052499;28;20210;-53
2022/03/04 06:29:12;;;;;;;13.10;8.60;;;4.20;66.80;;;7.10;52.39;102353.25;5052343;28;20230;-52
2022/03/04 06:31:45;;;;;;;12.03;8.17;;;4.10;66.80;;;7.10;52.90;102353.25;5066999;28;20186;-53
2022/03/04 06:34:12;;;;;;;13.13;8.10;;;4.10;67.10;;;7.11;53.38;102350.50;5055552;28;20215;-50
2022/03/04 06:36:40;;;;;;;12.13;7.90;;;4.10;67.60;;;7.16;53.58;102358.00;5056223;28;20261;-53
2022/03/04 06:39:08;;;;;;;15.57;9.70;;;4.20;68.10;;;7.22;53.07;102352.34;5054932;28;20263;-52
2022/03/04 06:41:37;;;;;;;17.27;9.13;;;4.20;67.70;;;7.24;53.33;102351.28;5056839;28;20278;-53
2022/03/04 06:44:04;;;;;;;17.53;7.60;;;4.30;67.50;;;7.27;52.68;102355.47;5054189;28;20234;-51
2022/03/04 06:46:33;;;;;;;13.97;7.43;;;4.30;67.40;;;7.29;52.81;102358.81;5034683;28;20195;-51
2022/03/04 06:49:00;;;;;;;16.03;9.30;;;4.30;67.50;;;7.30;52.84;102355.22;5036044;28;20199;-54
2022/03/04 06:51:28;;;;;;;15.23;9.30;;;4.30;67.40;;;7.32;53.31;102358.59;5036070;28;20197;-57
2022/03/04 06:53:55;;;;;;;14.13;9.13;;;4.30;67.60;;;7.35;53.11;102363.56;5053250;28;20542;-50
2022/03/04 06:56:23;;;;;;;14.57;9.93;;;4.30;67.70;;;7.39;53.42;102365.03;5055232;28;20269;-54
2022/03/04 06:58:52;;;;;;;15.80;9.33;;;4.40;68.20;;;7.47;53.67;102373.97;5055202;28;20205;-52
2022/03/04 07:01:19;;;;;;;12.77;8.20;;;4.40;68.40;;;7.54;53.45;102371.72;5056504;28;20199;-53
2022/03/04 07:03:47;;;;;;;12.70;8.53;;;4.50;68.50;;;7.61;52.90;102380.00;5054943;28;20896;-53
2022/03/04 07:06:16;;;;;;;12.23;8.10;;;4.50;68.20;;;7.68;52.76;102376.78;5055096;28;20191;-56
2022/03/04 07:08:43;;;;;;;12.77;7.73;;;4.60;68.20;;;7.77;53.04;102376.09;5054531;28;20221;-51
2022/03/04 07:11:11;;;;;;;13.63;9.20;;;4.60;68.20;;;7.84;52.50;102379.94;5054981;28;20179;-54
2022/03/04 07:13:38;;;;;;;17.10;9.17;;;4.70;68.40;;;7.90;52.73;102381.22;5054212;28;20231;-54
2022/03/04 07:16:07;;;;;;;11.80;7.80;;;4.70;68.20;;;7.97;52.68;102379.81;5055520;28;20594;-51
2022/03/04 07:18:34;;;;;;;12.33;8.50;;;4.80;68.20;;;8.04;52.99;102384.47;5055120;28;20221;-51
2022/03/04 07:21:03;;;;;;;12.20;8.30;;;4.80;68.30;;;8.11;52.52;102385.66;5054650;28;20191;-54
2022/03/04 07:23:30;;;;;;;12.13;8.10;;;4.90;68.10;;;8.14;52.35;102381.97;5054434;28;20198;-54
2022/03/04 07:25:57;;;;;;;13.47;8.70;;;5.00;67.80;;;8.19;52.41;102387.72;5054611;28;20205;-53
2022/03/04 07:28:25;;;;;;;13.57;8.43;;;5.00;67.80;;;8.27;52.12;102384.53;5054657;28;20241;-50
2022/03/04 07:30:52;;;;;;;14.07;8.07;;;5.10;67.80;;;8.33;52.43;102386.66;5054797;28;20225;-53
2022/03/04 07:33:21;;;;;;;15.70;8.87;;;5.10;67.60;;;8.35;52.09;102380.34;5054276;28;20225;-51
2022/03/04 07:35:48;;;;;;;14.20;8.60;;;5.20;67.60;;;8.39;51.99;102394.06;5054872;28;20193;-54
2022/03/04 07:38:16;;;;;;;11.20;8.00;;;5.20;67.50;;;8.40;51.85;102385.22;5054624;28;20190;-56
2022/03/04 07:40:44;;;;;;;11.07;7.90;;;5.30;67.90;;;8.43;51.43;102385.00;5054789;28;20274;-54
2022/03/04 07:43:11;;;;;;;12.70;9.00;;;5.30;66.70;;;8.47;51.64;102384.63;5053896;28;20264;-55
2022/03/04 07:45:39;;;;;;;12.07;7.63;;;5.30;66.60;;;8.55;51.44;102394.53;5054854;28;20199;-51
2022/03/04 07:48:06;;;;;;;11.80;8.60;;;5.40;66.60;;;8.61;51.39;102388.78;5054493;28;20234;-51
2022/03/04 07:50:35;;;;;;;9.97;7.20;;;5.40;66.60;;;8.67;51.31;102393.56;5048327;28;20242;-51
2022/03/04 07:53:02;;;;;;;17.27;8.13;;;5.50;66.60;;;8.73;50.99;102393.06;5041415;28;20621;-55
2022/03/04 07:55:30;;;;;;;10.23;7.27;;;5.50;66.30;;;8.82;51.00;102393.19;5047703;28;20706;-56
2022/03/04 07:57:59;;;;;;;10.40;7.67;;;5.50;66.20;;;8.91;50.40;102402.13;5049752;28;20655;-52
2022/03/04 08:00:26;;;;;;;10.83;6.87;;;5.60;66.00;;;8.95;50.44;102398.28;5042814;28;20578;-42
2022/03/04 08:02:54;;;;;;;9.40;5.80;;;5.60;65.90;;;9.17;51.17;102397.41;5035086;28;20184;-44
2022/03/04 08:05:22;;;;;;;10.47;7.80;;;5.80;67.00;;;9.84;49.96;102400.56;5045077;28;20522;-53
2022/03/04 08:07:51;;;;;;;12.87;7.87;;;6.10;67.70;;;9.90;49.01;102403.50;5049488;28;20213;-55
2022/03/04 08:10:18;;;;;;;11.83;8.63;;;6.30;65.80;;;9.93;48.43;102405.88;5049264;28;20198;-53
2022/03/04 08:12:46;;;;;;;10.20;7.13;;;6.40;64.50;;;9.93;48.74;102399.78;5050651;28;20194;-53
2022/03/04 08:15:13;;;;;;;10.80;7.60;;;6.50;63.90;;;9.92;48.54;102395.47;5046582;28;20227;-53
2022/03/04 08:17:41;;;;;;;15.30;10.00;;;6.50;63.40;;;9.94;47.89;102414.59;5039359;28;20295;-57
2022/03/04 08:20:10;;;;;;;11.67;8.13;;;6.50;62.90;;;9.92;48.42;102411.25;5041977;28;20204;-57
2022/03/04 08:22:38;;;;;;;8.60;6.90;;;6.60;62.60;;;9.90;48.05;102410.56;5034361;28;20200;-58
2022/03/04 08:25:08;;;;;;;11.20;7.27;;;6.60;62.60;;;9.88;47.77;102420.38;5033683;28;20222;-56
2022/03/04 08:27:40;;;;;;;10.20;7.67;;;6.60;62.50;;;9.82;48.14;102410.34;5036487;28;20218;-53
2022/03/04 08:30:10;;;;;;;14.43;9.20;;;6.60;62.20;;;9.82;48.08;102419.09;5035620;28;20248;-56
2022/03/04 08:32:38;;;;;;;13.63;8.20;;;6.60;62.50;;;9.86;48.02;102427.56;5033306;28;20204;-58
2022/03/04 08:35:08;;;;;;;12.53;7.73;;;6.60;62.60;;;9.86;48.32;102422.31;5034673;28;20780;-56
2022/03/04 08:37:36;;;;;;;12.30;7.60;;;6.60;62.40;;;9.85;47.76;102421.47;5037520;28;20696;-61
2022/03/04 08:40:09;;;;;;;12.33;7.93;;;6.60;62.20;;;9.85;48.19;102420.63;5051033;28;20192;-56
2022/03/04 08:42:37;;;;;;;10.67;7.60;;;6.60;62.20;;;9.82;48.18;102428.75;5050671;28;20189;-55
2022/03/04 08:45:05;;;;;;;9.43;7.00;;;6.60;62.20;;;9.78;47.99;102435.25;5050034;28;20579;-54
2022/03/04 08:47:36;;;;;;;10.17;7.03;;;6.50;62.10;;;9.73;48.13;102432.16;5033608;28;20214;-53
2022/03/04 08:50:05;;;;;;;9.77;7.53;;;6.50;62.10;;;9.70;48.19;102437.69;5042312;28;20208;-52
2022/03/04 08:52:33;;;;;;;14.20;8.87;;;6.50;62.10;;;9.68;48.38;102434.31;5050266;28;20225;-54
2022/03/04 08:55:01;;;;;;;13.70;8.73;;;6.50;62.20;;;9.66;48.17;102438.88;5037326;28;20218;-56
2022/03/04 08:57:30;;;;;;;13.33;7.13;;;6.50;62.30;;;9.61;48.20;102438.44;5038736;28;20585;-55
2022/03/04 09:00:01;;;;;;;14.83;8.93;;;6.40;62.20;;;9.60;48.12;102445.50;5035225;28;20290;-56
2022/03/04 09:02:28;;;;;;;13.00;8.83;;;6.40;62.40;;;9.61;48.30;102451.56;5046801;28;20190;-56
2022/03/04 09:04:56;;;;;;;14.13;8.93;;;6.40;62.50;;;9.63;48.49;102447.03;5047710;28;20222;-53
2022/03/04 09:07:23;;;;;;;12.63;8.03;;;6.40;62.60;;;9.68;48.22;102442.22;5039162;28;20200;-54
2022/03/04 09:09:50;;;;;;;12.00;8.67;;;6.40;62.80;;;9.74;48.36;102447.00;5033706;28;20198;-53
2022/03/04 09:12:19;;;;;;;10.80;7.67;;;6.40;62.80;;;9.80;48.12;102451.72;5034171;28;20194;-53
2022/03/04 09:14:47;;;;;;;10.13;7.43;;;6.50;63.00;;;9.87;48.29;102455.50;5037653;28;20213;-54
2022/03/04 09:17:15;;;;;;;13.27;7.40;;;6.50;62.60;;;9.92;47.85;102458.59;5050536;28;20191;-53
2022/03/04 09:19:42;;;;;;;12.17;7.63;;;6.60;62.40;;;9.92;47.65;102453.34;5043924;28;20593;-53
2022/03/04 09:22:23;;;;;;;8.37;6.30;;;6.60;62.20;;;9.90;47.97;102456.09;5036227;28;20201;-57
2022/03/04 09:24:51;;;;;;;10.90;7.13;;;6.70;62.10;;;9.93;47.80;102460.28;5031102;28;20324;-56
2022/03/04 09:27:18;;;;;;;14.37;7.27;;;6.70;62.10;;;9.94;48.11;102461.94;5046225;28;20196;-53
2022/03/04 09:29:47;;;;;;;12.43;7.67;;;6.70;62.10;;;9.95;47.57;102471.50;5037902;28;20191;-53
2022/03/04 09:32:14;;;;;;;11.67;7.73;;;6.70;61.90;;;9.98;47.72;102468.63;5038272;28;20290;-55
2022/03/04 09:34:42;;;;;;;12.17;7.97;;;6.70;61.90;;;10.01;47.82;102466.56;5034532;28;20291;-54
2022/03/04 09:37:09;;;;;;;13.37;6.83;;;6.70;61.80;;;10.06;47.60;102472.28;5035199;28;20210;-59
2022/03/04 09:39:37;;;;;;;11.90;7.07;;;6.80;61.80;;;10.11;47.11;102469.25;5035938;28;20194;-54
2022/03/04 09:42:06;;;;;;;10.80;7.10;;;6.80;61.70;;;10.18;47.59;102465.16;5036225;28;20231;-53
2022/03/04 09:44:34;;;;;;;12.57;8.83;;;6.90;61.70;;;10.23;47.03;102470.88;5035855;28;20221;-57
2022/03/04 09:47:05;;;;;;;23.57;13.97;;;6.90;61.60;;;10.29;47.03;102465.13;5036638;28;20296;-57
2022/03/04 09:49:36;;;;;;;46.87;26.37;;;6.90;61.20;;;10.40;46.86;102478.19;5035069;28;20301;-58
2022/03/04 09:52:05;;;;;;;12.77;9.10;;;7.00;61.40;;;10.53;46.89;102470.91;5016799;28;20210;-57
2022/03/04 09:54:33;;;;;;;10.60;7.47;;;7.10;61.20;;;10.63;46.69;102477.06;5032574;28;20267;-58
2022/03/04 09:57:01;;;;;;;12.33;7.70;;;7.20;60.80;;;10.67;46.16;102478.44;5035098;28;20631;-55
2022/03/04 09:59:28;;;;;;;12.43;7.70;;;7.20;60.20;;;10.70;45.91;102478.19;5034989;28;20190;-53
2022/03/04 10:01:58;;;;;;;15.10;10.93;;;7.30;59.90;;;10.76;46.18;102471.56;5035597;28;20197;-56
2022/03/04 10:04:28;;;;;;;10.57;8.37;;;7.40;59.80;;;10.85;45.69;102471.59;5034434;28;20718;-58
2022/03/04 10:06:56;;;;;;;11.13;7.20;;;7.40;59.70;;;10.88;45.71;102476.63;5039060;28;20198;-52
2022/03/04 10:09:35;;;;;;;9.43;6.90;;;7.50;60.30;;;10.89;45.67;102478.25;5038654;28;20248;-56
2022/03/04 10:12:07;;;;;;;8.63;6.57;;;7.60;59.40;;;10.94;44.67;102477.03;5038778;28;20255;-57
2022/03/04 10:14:56;;;;;;;9.57;6.97;;;7.60;58.60;;;10.91;44.65;102483.38;5040226;28;20221;-54
2022/03/04 10:17:29;;;;;;;8.30;5.93;;;7.70;58.30;;;10.86;44.27;102477.72;5040780;28;20277;-58
2022/03/04 10:20:01;;;;;;;9.43;6.70;;;7.70;57.50;;;10.77;44.93;102476.69;5040394;28;20270;-57
2022/03/04 10:22:37;;;;;;;13.90;9.33;;;7.70;57.40;;;10.71;44.99;102471.97;5037314;28;20300;-55